Time;durP1;ratioP1;P1;durP2;ratioP2;P2;SDS_P1;SDS_P2;PMS_P1;PMS_P2;Temp;Humidity;BMP_temperature;BMP_pressure;BME280_temperature;BME280_humidity;BME280_pressure;Samples;Min_cycle;Max_cycle;Signal;HPM_P1;HPM_P2
2023/04/10 00:00:56;;;;;;;14.40;11.60;;;4.90;80.40;;;;;;5028876;28;21037;-66
2023/04/10 00:03:23;;;;;;;17.47;13.00;;;4.90;80.40;;;;;;5028298;28;20496;-66
2023/04/10 00:05:53;;;;;;;15.10;12.40;;;4.90;81.00;;;;;;5028652;28;20453;-66
2023/04/10 00:08:20;;;;;;;14.20;12.30;;;4.80;81.20;;;;;;5040753;28;20831;-67
2023/04/10 00:10:47;;;;;;;15.10;13.20;;;4.80;80.40;;;;;;5047754;28;20562;-66
2023/04/10 00:13:14;;;;;;;14.80;11.43;;;4.60;81.10;;;;;;5047773;28;20985;-66
2023/04/10 00:15:41;;;;;;;16.00;12.93;;;4.60;81.40;;;;;;5045230;28;20452;-67
2023/04/10 00:18:08;;;;;;;18.17;13.97;;;4.50;82.40;;;;;;5042238;28;20459;-66
2023/04/10 00:20:35;;;;;;;17.20;13.23;;;4.40;83.70;;;;;;5047782;28;20997;-67
2023/04/10 00:23:03;;;;;;;16.50;13.10;;;4.30;84.10;;;;;;5028020;28;20480;-67
2023/04/10 00:25:30;;;;;;;16.67;12.80;;;4.30;84.80;;;;;;5028633;28;20448;-66
2023/04/10 00:27:56;;;;;;;14.53;12.20;;;4.20;85.30;;;;;;5028037;28;20441;-67
2023/04/10 00:30:23;;;;;;;15.00;13.00;;;4.30;84.20;;;;;;5041219;28;20494;-67
2023/04/10 00:32:50;;;;;;;18.30;12.87;;;4.30;83.60;;;;;;5047519;28;20448;-67
2023/04/10 00:35:17;;;;;;;17.00;13.40;;;4.30;83.70;;;;;;5049715;28;20454;-67
2023/04/10 00:37:44;;;;;;;16.50;13.43;;;4.30;83.50;;;;;;5050415;28;20953;-67
2023/04/10 00:40:12;;;;;;;15.63;13.07;;;4.30;83.70;;;;;;5050783;28;20460;-67
2023/04/10 00:42:39;;;;;;;15.60;11.87;;;4.30;83.00;;;;;;5050327;28;20459;-68
2023/04/10 00:45:07;;;;;;;18.20;12.90;;;4.40;82.50;;;;;;5050122;28;20447;-68
2023/04/10 00:47:37;;;;;;;15.30;13.43;;;4.40;82.20;;;;;;5050452;28;20458;-67
2023/04/10 00:50:05;;;;;;;16.20;12.50;;;4.40;82.90;;;;;;5050053;28;20510;-67
2023/04/10 00:52:32;;;;;;;15.07;12.20;;;4.40;82.30;;;;;;5050248;28;20444;-67
2023/04/10 00:54:59;;;;;;;16.10;12.83;;;4.30;83.10;;;;;;5050058;28;20451;-67
2023/04/10 00:57:27;;;;;;;17.30;13.60;;;4.20;84.20;;;;;;5050548;28;20448;-67
2023/04/10 00:59:54;;;;;;;16.90;13.33;;;4.20;85.00;;;;;;5049736;28;21108;-67
2023/04/10 01:02:22;;;;;;;17.93;13.20;;;4.20;85.40;;;;;;5050064;28;20527;-68
2023/04/10 01:04:49;;;;;;;14.10;12.03;;;4.20;85.00;;;;;;5049832;28;20942;-67
2023/04/10 01:07:21;;;;;;;14.03;12.63;;;4.20;85.10;;;;;;5050019;28;20558;-66
2023/04/10 01:09:54;;;;;;;17.97;13.37;;;4.10;84.70;;;;;;5050110;28;20929;-66
2023/04/10 01:12:43;;;;;;;16.13;12.37;;;4.10;84.90;;;;;;5049663;28;20458;-67
2023/04/10 01:15:13;;;;;;;19.90;13.70;;;4.20;84.00;;;;;;5050160;28;20823;-67
2023/04/10 01:17:46;;;;;;;16.17;13.40;;;4.20;84.10;;;;;;5049659;28;20796;-67
2023/04/10 01:20:14;;;;;;;16.83;12.63;;;4.20;83.20;;;;;;5049886;28;20813;-67
2023/04/10 01:22:52;;;;;;;15.30;12.33;;;4.20;83.30;;;;;;5049528;28;20497;-68
2023/04/10 01:25:39;;;;;;;15.60;11.60;;;4.00;84.10;;;;;;5049483;28;20447;-67
2023/04/10 01:28:21;;;;;;;16.00;13.07;;;4.00;85.10;;;;;;5049699;28;20448;-68
2023/04/10 01:30:56;;;;;;;16.70;14.40;;;4.00;85.70;;;;;;5049685;28;20483;-67
2023/04/10 01:33:30;;;;;;;16.37;13.30;;;3.90;84.80;;;;;;5048764;28;20489;-67
2023/04/10 01:36:01;;;;;;;19.57;13.07;;;3.80;86.20;;;;;;5049618;28;20486;-67
2023/04/10 01:38:30;;;;;;;19.40;14.00;;;3.60;85.60;;;;;;5049538;28;21166;-66
2023/04/10 01:41:00;;;;;;;14.50;11.83;;;3.60;86.20;;;;;;5049478;28;20460;-68
2023/04/10 01:43:29;;;;;;;16.10;12.73;;;3.70;85.80;;;;;;5049369;28;20522;-68
2023/04/10 01:45:58;;;;;;;17.43;13.13;;;3.60;87.00;;;;;;5049336;28;20471;-67
2023/04/10 01:48:26;;;;;;;17.93;13.60;;;3.60;88.20;;;;;;5049780;28;20452;-67
2023/04/10 01:50:54;;;;;;;17.40;13.80;;;3.60;87.90;;;;;;5049439;28;20487;-68
2023/04/10 01:53:23;;;;;;;18.43;13.97;;;3.60;87.70;;;;;;5049211;28;20978;-67
2023/04/10 01:55:50;;;;;;;19.67;14.23;;;3.60;87.70;;;;;;5049229;28;20460;-67
2023/04/10 01:58:17;;;;;;;16.97;13.97;;;3.40;87.70;;;;;;5049749;28;20530;-68
2023/04/10 02:00:44;;;;;;;16.23;13.17;;;3.30;87.30;;;;;;5049279;28;20479;-67
2023/04/10 02:03:12;;;;;;;15.67;12.23;;;3.40;87.30;;;;;;5048521;28;20466;-67
2023/04/10 02:05:48;;;;;;;14.10;11.57;;;3.40;86.90;;;;;;5049459;28;20451;-67
2023/04/10 02:08:22;;;;;;;16.63;13.13;;;3.40;87.60;;;;;;5049281;28;20443;-67
2023/04/10 02:10:52;;;;;;;17.23;13.60;;;3.30;89.00;;;;;;5049877;28;21099;-68
2023/04/10 02:13:22;;;;;;;16.30;12.77;;;3.30;88.70;;;;;;5049171;28;20458;-68
2023/04/10 02:15:51;;;;;;;17.20;14.10;;;3.30;87.90;;;;;;5049260;28;20443;-68
2023/04/10 02:18:21;;;;;;;18.40;13.70;;;3.30;88.00;;;;;;5049095;28;20501;-67
2023/04/10 02:20:48;;;;;;;17.47;12.33;;;3.30;88.50;;;;;;5049716;28;20467;-67
2023/04/10 02:23:16;;;;;;;15.27;12.50;;;3.30;88.50;;;;;;5048885;28;20451;-68
2023/04/10 02:25:43;;;;;;;20.90;12.83;;;3.30;89.50;;;;;;5049475;28;20818;-68
2023/04/10 02:28:10;;;;;;;16.50;12.60;;;3.50;90.00;;;;;;5049527;28;20451;-68
2023/04/10 02:30:38;;;;;;;18.47;13.40;;;3.60;87.70;;;;;;5049312;28;20487;-68
2023/04/10 02:33:05;;;;;;;16.50;13.70;;;3.50;86.80;;;;;;5050902;28;20455;-67
2023/04/10 02:35:33;;;;;;;16.80;12.50;;;3.50;87.30;;;;;;5053087;28;20461;-68
2023/04/10 02:38:00;;;;;;;17.20;13.17;;;3.40;86.90;;;;;;5052848;28;20444;-67
2023/04/10 02:40:27;;;;;;;17.10;14.23;;;3.50;88.00;;;;;;5052705;28;20470;-68
2023/04/10 02:42:54;;;;;;;16.13;13.60;;;3.40;88.20;;;;;;5052426;28;20845;-67
2023/04/10 02:45:20;;;;;;;18.33;14.67;;;3.10;87.70;;;;;;5052610;28;20470;-68
2023/04/10 02:47:47;;;;;;;20.07;14.93;;;3.00;89.30;;;;;;5052800;28;20526;-67
2023/04/10 02:50:16;;;;;;;21.63;15.40;;;2.90;90.20;;;;;;5052466;28;20479;-67
2023/04/10 02:52:44;;;;;;;21.77;15.70;;;2.80;90.10;;;;;;5052338;28;20515;-67
2023/04/10 02:55:11;;;;;;;19.75;15.25;;;2.80;90.20;;;;;;5052710;28;20450;-67
2023/04/10 02:57:38;;;;;;;20.50;14.00;;;2.90;90.00;;;;;;5052366;28;20201;-67
2023/04/10 03:00:05;;;;;;;18.88;13.80;;;2.90;90.20;;;;;;5052425;28;20480;-67
2023/04/10 03:02:33;;;;;;;17.25;13.32;;;2.90;90.30;;;;;;5052079;28;20207;-67
2023/04/10 03:05:01;;;;;;;18.48;13.98;;;2.90;90.30;;;;;;5052467;28;20202;-68
2023/04/10 03:07:27;;;;;;;16.60;13.00;;;2.90;90.30;;;;;;5052332;28;20201;-69
2023/04/10 03:09:55;;;;;;;18.60;14.17;;;2.90;90.20;;;;;;5052231;28;20235;-67
2023/04/10 03:12:22;;;;;;;18.58;13.68;;;3.00;90.60;;;;;;5052147;28;20443;-67
2023/04/10 03:14:49;;;;;;;18.35;13.40;;;3.00;90.00;;;;;;5051922;28;20201;-68
2023/04/10 03:17:16;;;;;;;16.67;12.80;;;2.90;90.00;;;;;;5052031;28;20211;-67
2023/04/10 03:19:43;;;;;;;16.50;13.57;;;2.70;90.10;;;;;;5051710;28;20245;-67
2023/04/10 03:22:10;;;;;;;19.40;14.43;;;2.80;90.70;;;;;;5052081;28;20459;-67
2023/04/10 03:24:38;;;;;;;16.30;13.13;;;2.80;90.10;;;;;;5051515;28;20513;-67
2023/04/10 03:27:06;;;;;;;19.60;14.10;;;2.60;89.30;;;;;;5052071;28;20449;-68
2023/04/10 03:29:33;;;;;;;20.23;14.63;;;2.50;90.20;;;;;;5051577;28;20463;-67
2023/04/10 03:32:00;;;;;;;16.48;13.45;;;2.50;90.20;;;;;;5051580;28;20447;-68
2023/04/10 03:34:27;;;;;;;24.15;13.55;;;2.40;89.60;;;;;;5051720;28;20210;-67
2023/04/10 03:36:54;;;;;;;18.70;13.77;;;2.40;89.90;;;;;;5051771;28;20212;-68
2023/04/10 03:39:20;;;;;;;18.50;14.33;;;2.40;90.20;;;;;;5051825;28;20214;-67
2023/04/10 03:41:47;;;;;;;19.48;14.35;;;2.40;90.60;;;;;;5051694;28;20906;-67
2023/04/10 03:44:17;;;;;;;17.85;13.60;;;2.40;91.40;;;;;;5051197;28;20253;-67
2023/04/10 03:46:43;;;;;;;19.67;14.40;;;2.50;89.50;;;;;;5051704;28;20694;-67
2023/04/10 03:49:10;;;;;;;20.30;14.70;;;2.40;90.10;;;;;;5051812;28;20198;-68
2023/04/10 03:51:37;;;;;;;18.80;14.75;;;2.40;90.40;;;;;;5051401;28;20231;-68
2023/04/10 03:54:04;;;;;;;19.60;14.38;;;2.40;90.20;;;;;;5051307;28;20226;-67
2023/04/10 03:56:30;;;;;;;19.00;12.82;;;2.40;90.10;;;;;;5051889;28;20225;-68
2023/04/10 03:58:57;;;;;;;19.50;14.68;;;2.40;90.20;;;;;;5050924;28;20206;-68
2023/04/10 04:01:25;;;;;;;22.25;15.00;;;2.40;90.80;;;;;;5051502;28;20609;-67
2023/04/10 04:03:52;;;;;;;18.05;14.68;;;2.40;90.90;;;;;;5051223;28;20207;-67
2023/04/10 04:06:19;;;;;;;19.30;14.18;;;2.50;90.70;;;;;;5051499;28;20238;-67
2023/04/10 04:08:46;;;;;;;19.92;14.50;;;2.40;90.30;;;;;;5051235;28;20203;-67
2023/04/10 04:11:13;;;;;;;17.65;13.13;;;2.30;91.10;;;;;;5051259;28;20223;-68
2023/04/10 04:13:39;;;;;;;19.02;14.20;;;2.20;91.40;;;;;;5050813;28;20214;-68
2023/04/10 04:16:08;;;;;;;20.73;14.95;;;2.10;91.60;;;;;;5051334;28;20214;-68
2023/04/10 04:18:36;;;;;;;19.33;14.35;;;2.00;91.30;;;;;;5051245;28;20690;-68
2023/04/10 04:21:02;;;;;;;19.85;13.85;;;1.90;91.50;;;;;;5050955;28;20266;-68
2023/04/10 04:23:29;;;;;;;20.92;14.55;;;2.00;91.50;;;;;;5051004;28;20208;-68
2023/04/10 04:25:57;;;;;;;23.58;15.20;;;2.10;91.20;;;;;;5051140;28;20207;-68
2023/04/10 04:28:24;;;;;;;19.48;13.90;;;2.10;91.30;;;;;;5051670;28;20219;-68
2023/04/10 04:30:51;;;;;;;17.13;12.95;;;2.00;91.30;;;;;;5051290;28;20231;-68
2023/04/10 04:33:18;;;;;;;18.52;14.52;;;2.00;91.50;;;;;;5051315;28;20210;-67
2023/04/10 04:35:46;;;;;;;19.90;14.40;;;2.00;91.60;;;;;;5051677;28;20274;-68
2023/04/10 04:38:13;;;;;;;19.40;14.20;;;2.00;91.70;;;;;;5050748;28;20211;-69
2023/04/10 04:40:39;;;;;;;16.58;13.25;;;2.00;91.90;;;;;;5050912;28;20225;-68
2023/04/10 04:43:06;;;;;;;20.33;14.15;;;1.90;91.60;;;;;;5050402;28;20200;-68
2023/04/10 04:45:33;;;;;;;21.10;15.45;;;2.00;91.90;;;;;;5050989;28;20204;-68
2023/04/10 04:48:00;;;;;;;23.58;15.40;;;2.10;92.00;;;;;;5051005;28;20214;-68
2023/04/10 04:50:29;;;;;;;21.05;15.00;;;2.10;92.00;;;;;;5050907;28;20223;-67
2023/04/10 04:52:59;;;;;;;19.00;14.02;;;2.20;91.90;;;;;;5050746;28;20191;-67
2023/04/10 04:55:26;;;;;;;17.52;13.52;;;2.20;91.70;;;;;;5050257;28;20202;-69
2023/04/10 04:57:53;;;;;;;18.25;14.70;;;2.30;91.60;;;;;;5051088;28;20213;-68
2023/04/10 05:00:19;;;;;;;16.15;12.13;;;2.40;91.40;;;;;;5050590;28;20241;-67
2023/04/10 05:02:46;;;;;;;16.90;12.45;;;2.40;91.50;;;;;;5050138;28;20204;-69
2023/04/10 05:05:13;;;;;;;15.05;11.90;;;2.40;91.40;;;;;;5049983;28;20207;-68
2023/04/10 05:07:40;;;;;;;18.77;13.87;;;2.50;91.20;;;;;;5050065;28;20214;-68
2023/04/10 05:10:09;;;;;;;22.47;14.40;;;2.60;90.90;;;;;;5049801;28;20462;-68
2023/04/10 05:12:36;;;;;;;16.00;12.77;;;2.70;90.70;;;;;;5049786;28;20476;-68
2023/04/10 05:15:04;;;;;;;14.60;12.50;;;2.80;90.80;;;;;;5050052;28;20205;-68
2023/04/10 05:17:30;;;;;;;18.53;11.80;;;2.80;90.80;;;;;;5049753;28;20465;-68
2023/04/10 05:19:57;;;;;;;15.25;12.35;;;2.80;90.60;;;;;;5049847;28;20488;-68
2023/04/10 05:22:25;;;;;;;16.73;12.43;;;2.90;91.00;;;;;;5049354;28;20213;-69
2023/04/10 05:24:52;;;;;;;14.88;12.27;;;3.00;90.80;;;;;;5049769;28;20937;-68
2023/04/10 05:27:20;;;;;;;16.13;11.93;;;2.90;90.80;;;;;;5049780;28;20532;-67
2023/04/10 05:29:46;;;;;;;16.57;12.33;;;3.00;90.10;;;;;;5049852;28;20222;-68
2023/04/10 05:32:14;;;;;;;19.10;13.52;;;3.00;90.30;;;;;;5049537;28;20490;-68
2023/04/10 05:34:40;;;;;;;16.70;12.33;;;3.20;90.70;;;;;;5049471;28;20208;-68
2023/04/10 05:37:08;;;;;;;16.47;12.17;;;3.20;90.20;;;;;;5049629;28;20454;-68
2023/04/10 05:39:35;;;;;;;16.50;14.03;;;3.50;90.40;;;;;;5049751;28;20478;-67
2023/04/10 05:42:02;;;;;;;14.27;11.00;;;3.60;90.40;;;;;;5049813;28;20467;-67
2023/04/10 05:44:30;;;;;;;14.47;11.67;;;3.70;89.60;;;;;;5049259;28;20462;-68
2023/04/10 05:46:57;;;;;;;14.40;11.20;;;3.80;89.00;;;;;;5049561;28;20974;-67
2023/04/10 05:49:24;;;;;;;12.90;10.30;;;3.90;88.80;;;;;;5049132;28;20845;-67
2023/04/10 05:51:52;;;;;;;13.67;10.83;;;4.00;88.50;;;;;;5049645;28;20566;-67
2023/04/10 05:54:19;;;;;;;14.30;11.67;;;4.20;87.90;;;;;;5049051;28;20455;-67
2023/04/10 05:56:46;;;;;;;13.80;11.43;;;4.50;86.60;;;;;;5049760;28;20774;-67
2023/04/10 05:59:13;;;;;;;15.60;11.10;;;4.50;86.70;;;;;;5049292;28;20478;-66
2023/04/10 06:01:41;;;;;;;13.43;12.07;;;4.70;85.70;;;;;;5049425;28;20449;-68
2023/04/10 06:04:08;;;;;;;13.53;11.00;;;4.80;84.90;;;;;;5048926;28;20471;-68
2023/04/10 06:06:35;;;;;;;12.40;10.07;;;4.90;84.60;;;;;;5049342;28;20453;-68
2023/04/10 06:09:02;;;;;;;15.00;11.33;;;5.10;80.90;;;;;;5052916;28;20482;-68
2023/04/10 06:11:29;;;;;;;12.13;10.30;;;5.20;79.00;;;;;;5053075;28;21075;-67
2023/04/10 06:13:56;;;;;;;13.80;11.30;;;5.30;78.10;;;;;;5053384;28;20487;-69
2023/04/10 06:16:23;;;;;;;12.93;11.20;;;5.40;78.00;;;;;;5052864;28;20452;-69
2023/04/10 06:18:51;;;;;;;12.20;10.30;;;5.40;79.30;;;;;;5053547;28;20829;-69
2023/04/10 06:21:18;;;;;;;14.00;11.50;;;5.50;79.80;;;;;;5053676;28;20834;-67
2023/04/10 06:23:45;;;;;;;12.80;10.73;;;5.60;79.50;;;;;;5052752;28;20458;-68
2023/04/10 06:26:12;;;;;;;11.33;9.90;;;5.60;79.60;;;;;;5053491;28;20552;-68
2023/04/10 06:28:39;;;;;;;11.47;10.27;;;5.70;78.70;;;;;;5053204;28;20450;-67
2023/04/10 06:31:07;;;;;;;12.30;10.40;;;5.70;77.70;;;;;;5053019;28;20490;-67
2023/04/10 06:33:35;;;;;;;11.97;10.30;;;5.70;76.90;;;;;;5052850;28;20449;-67
2023/04/10 06:36:05;;;;;;;12.47;9.87;;;5.80;76.30;;;;;;5053343;28;20481;-66
2023/04/10 06:38:36;;;;;;;13.97;10.27;;;5.80;76.20;;;;;;5052711;28;20453;-68
2023/04/10 06:41:03;;;;;;;13.80;11.00;;;5.90;75.80;;;;;;5053102;28;20820;-68
2023/04/10 06:43:31;;;;;;;13.23;11.20;;;5.90;74.60;;;;;;5052651;28;20451;-67
2023/04/10 06:45:57;;;;;;;13.20;10.63;;;6.00;75.80;;;;;;5052897;28;20463;-68
2023/04/10 06:48:24;;;;;;;11.77;9.80;;;6.00;76.10;;;;;;5053127;28;20540;-66
2023/04/10 06:50:51;;;;;;;13.30;10.17;;;6.00;78.70;;;;;;5052941;28;20475;-67
2023/04/10 06:53:19;;;;;;;12.00;10.30;;;5.90;78.30;;;;;;5052932;28;20467;-67
2023/04/10 06:55:46;;;;;;;11.77;9.63;;;5.90;77.40;;;;;;5052439;28;20451;-68
2023/04/10 06:58:13;;;;;;;11.57;9.53;;;6.00;74.70;;;;;;5052483;28;20450;-68
2023/04/10 07:00:40;;;;;;;13.07;10.53;;;6.00;76.20;;;;;;5052272;28;20474;-67
2023/04/10 07:03:07;;;;;;;12.13;9.93;;;6.10;75.00;;;;;;5051937;28;20939;-67
2023/04/10 07:05:33;;;;;;;13.60;10.70;;;6.20;75.30;;;;;;5052483;28;20535;-67
2023/04/10 07:08:00;;;;;;;11.43;9.97;;;6.30;73.80;;;;;;5052193;28;20458;-68
2023/04/10 07:10:28;;;;;;;12.30;10.23;;;6.50;72.50;;;;;;5052230;28;20477;-67
2023/04/10 07:12:56;;;;;;;12.83;10.37;;;6.70;73.00;;;;;;5051709;28;20821;-67
2023/04/10 07:15:23;;;;;;;12.23;9.90;;;6.80;73.20;;;;;;5052405;28;20435;-68
2023/04/10 07:17:49;;;;;;;11.83;10.30;;;7.00;73.20;;;;;;5051766;28;20444;-68
2023/04/10 07:20:16;;;;;;;11.00;9.90;;;7.20;69.80;;;;;;5051989;28;20464;-68
2023/04/10 07:22:43;;;;;;;12.30;10.03;;;7.30;71.00;;;;;;5051561;28;20440;-68
2023/04/10 07:25:10;;;;;;;12.53;11.30;;;7.50;69.90;;;;;;5051709;28;20461;-68
2023/04/10 07:27:38;;;;;;;10.77;9.67;;;7.60;69.30;;;;;;5051927;28;20501;-68
2023/04/10 07:30:06;;;;;;;13.20;10.77;;;7.70;69.70;;;;;;5051641;28;20470;-67
2023/04/10 07:32:33;;;;;;;11.40;10.30;;;7.90;67.70;;;;;;5051641;28;20480;-68
2023/04/10 07:35:00;;;;;;;12.13;10.13;;;8.00;68.10;;;;;;5051757;28;20482;-69
2023/04/10 07:37:27;;;;;;;10.50;9.50;;;8.30;66.70;;;;;;5051860;28;20440;-69
2023/04/10 07:39:54;;;;;;;11.57;9.43;;;8.50;65.40;;;;;;5051456;28;20464;-69
2023/04/10 07:42:21;;;;;;;11.37;9.40;;;8.50;65.00;;;;;;5051825;28;20450;-68
2023/04/10 07:44:50;;;;;;;10.33;8.10;;;8.60;67.70;;;;;;5051672;28;21014;-68
2023/04/10 07:47:16;;;;;;;9.97;8.97;;;8.80;63.30;;;;;;5051570;28;20451;-68
2023/04/10 07:49:43;;;;;;;9.60;8.13;;;8.90;63.70;;;;;;5051457;28;20982;-66
2023/04/10 07:52:10;;;;;;;10.87;9.30;;;9.10;63.50;;;;;;5051640;28;20478;-68
2023/04/10 07:54:37;;;;;;;9.90;8.90;;;9.30;60.30;;;;;;5050962;28;20496;-68
2023/04/10 07:57:04;;;;;;;10.10;8.70;;;9.60;61.30;;;;;;5050917;28;20945;-68
2023/04/10 07:59:31;;;;;;;9.80;8.80;;;9.70;60.60;;;;;;5051250;28;20473;-68
2023/04/10 08:01:59;;;;;;;10.20;9.17;;;9.90;60.00;;;;;;5050617;28;20436;-69
2023/04/10 08:04:26;;;;;;;7.67;6.97;;;10.00;59.10;;;;;;5051239;28;20447;-68
2023/04/10 08:06:53;;;;;;;9.57;8.57;;;10.30;57.70;;;;;;5051155;28;20447;-67
2023/04/10 08:09:19;;;;;;;8.30;7.50;;;10.60;57.10;;;;;;5050806;28;20462;-67
2023/04/10 08:11:46;;;;;;;9.80;6.70;;;10.70;56.90;;;;;;5042944;28;20488;-67
2023/04/10 08:14:13;;;;;;;7.13;6.43;;;11.00;53.80;;;;;;5047672;28;20448;-67
2023/04/10 08:16:40;;;;;;;7.13;6.43;;;11.30;55.80;;;;;;5051360;28;20541;-66
2023/04/10 08:19:08;;;;;;;6.20;5.60;;;11.50;54.10;;;;;;5050982;28;20541;-66
2023/04/10 08:21:35;;;;;;;7.60;6.90;;;11.70;54.00;;;;;;5051060;28;20462;-66
2023/04/10 08:24:03;;;;;;;7.27;6.63;;;11.90;50.90;;;;;;5050890;28;20823;-67
2023/04/10 08:26:30;;;;;;;7.43;6.73;;;12.10;52.70;;;;;;5051235;28;20451;-68
2023/04/10 08:28:58;;;;;;;7.53;6.57;;;12.20;51.90;;;;;;5050890;28;20828;-68
2023/04/10 08:31:26;;;;;;;7.73;7.03;;;12.40;50.60;;;;;;5049501;28;20533;-68
2023/04/10 08:33:53;;;;;;;8.10;7.40;;;12.50;49.50;;;;;;5050352;28;20451;-68
2023/04/10 08:36:22;;;;;;;6.80;6.10;;;12.60;50.60;;;;;;5050396;28;20455;-69
2023/04/10 08:38:48;;;;;;;7.63;6.93;;;12.70;50.30;;;;;;5050957;28;21081;-69
2023/04/10 08:41:16;;;;;;;6.87;6.27;;;12.80;47.30;;;;;;5050439;28;20471;-68
2023/04/10 08:43:44;;;;;;;7.07;6.40;;;13.00;48.20;;;;;;5049317;28;20440;-70
2023/04/10 08:46:11;;;;;;;7.80;7.00;;;13.20;49.30;;;;;;5047182;28;20459;-69
2023/04/10 08:48:45;;;;;;;7.63;6.93;;;13.40;48.40;;;;;;5050177;28;20448;-68
2023/04/10 08:51:17;;;;;;;7.37;6.67;;;13.60;46.80;;;;;;5031908;28;20459;-69
2023/04/10 08:53:47;;;;;;;7.77;6.97;;;13.80;48.40;;;;;;5049497;28;20448;-69
2023/04/10 08:56:17;;;;;;;7.13;6.43;;;14.00;45.60;;;;;;5050389;28;20818;-69
2023/04/10 08:58:44;;;;;;;6.10;5.50;;;14.00;44.40;;;;;;5050155;28;20452;-69
2023/04/10 09:01:11;;;;;;;6.47;5.63;;;13.90;44.20;;;;;;5049805;28;20520;-70
2023/04/10 09:03:39;;;;;;;6.00;5.40;;;14.00;47.10;;;;;;5049800;28;20450;-70
2023/04/10 09:06:06;;;;;;;5.43;4.93;;;14.10;46.10;;;;;;5049918;28;20450;-70
2023/04/10 09:08:33;;;;;;;5.67;4.97;;;14.40;45.10;;;;;;5049997;28;20440;-70
2023/04/10 09:11:02;;;;;;;5.03;4.63;;;14.70;43.00;;;;;;5056836;28;20473;-70
2023/04/10 09:13:36;;;;;;;4.43;4.10;;;14.80;42.50;;;;;;5069720;28;20485;-69
2023/04/10 09:16:03;;;;;;;4.57;4.17;;;15.00;43.50;;;;;;5069710;28;20453;-70
2023/04/10 09:18:48;;;;;;;5.10;4.67;;;15.20;43.20;;;;;;5070023;28;20457;-69
2023/04/10 09:21:17;;;;;;;5.10;4.60;;;15.50;42.20;;;;;;5056623;28;20472;-69
2023/04/10 09:23:44;;;;;;;4.80;4.40;;;15.70;41.90;;;;;;5049640;28;20454;-69
2023/04/10 09:26:26;;;;;;;5.17;4.77;;;16.10;42.20;;;;;;5049854;28;20505;-70
2023/04/10 09:28:57;;;;;;;4.17;3.80;;;16.70;41.90;;;;;;5048726;28;20447;-70
2023/04/10 09:31:29;;;;;;;4.90;4.50;;;17.10;39.40;;;;;;5044889;28;20836;-70
2023/04/10 09:34:09;;;;;;;4.30;3.90;;;17.50;39.30;;;;;;5046959;28;20448;-69
2023/04/10 09:36:36;;;;;;;3.90;3.60;;;17.90;37.70;;;;;;5042113;28;20531;-71
2023/04/10 09:39:04;;;;;;;4.13;3.80;;;18.20;35.10;;;;;;5035960;28;20449;-70
2023/04/10 09:41:32;;;;;;;3.57;3.27;;;18.50;37.20;;;;;;5028330;28;20499;-70
2023/04/10 09:44:10;;;;;;;4.37;4.03;;;18.70;33.10;;;;;;5028985;28;20445;-70
2023/04/10 09:46:37;;;;;;;4.03;3.63;;;19.00;33.70;;;;;;5029001;28;20490;-70
2023/04/10 09:49:06;;;;;;;4.37;4.00;;;18.60;32.60;;;;;;5029690;28;20460;-70
2023/04/10 09:51:34;;;;;;;4.10;3.77;;;18.20;32.80;;;;;;5029658;28;20506;-70
2023/04/10 09:54:01;;;;;;;3.70;3.40;;;18.20;34.50;;;;;;5029501;28;20456;-70
2023/04/10 09:56:30;;;;;;;3.63;3.33;;;18.50;33.10;;;;;;5029596;28;20463;-70
2023/04/10 09:58:59;;;;;;;3.77;3.47;;;18.70;32.90;;;;;;5029341;28;20456;-70
2023/04/10 10:01:28;;;;;;;4.03;3.63;;;18.60;33.90;;;;;;5029468;28;20531;-71
2023/04/10 10:03:55;;;;;;;3.80;3.50;;;18.70;33.80;;;;;;5029191;28;20502;-71
2023/04/10 10:06:23;;;;;;;3.70;3.43;;;19.00;34.60;;;;;;5029608;28;20445;-70
2023/04/10 10:08:50;;;;;;;3.17;2.87;;;19.30;33.20;;;;;;5029668;28;20449;-70
2023/04/10 10:11:21;;;;;;;3.93;3.07;;;19.40;31.00;;;;;;5030009;28;20465;-70
2023/04/10 10:13:52;;;;;;;3.47;3.20;;;19.50;31.20;;;;;;5029295;28;20476;-70
2023/04/10 10:16:27;;;;;;;3.63;3.33;;;19.70;30.90;;;;;;5029970;28;20457;-70
2023/04/10 10:19:01;;;;;;;3.30;3.10;;;19.90;31.30;;;;;;5030145;28;20798;-70
2023/04/10 10:21:29;;;;;;;3.60;3.30;;;20.20;30.50;;;;;;5029800;28;20464;-71
2023/04/10 10:23:58;;;;;;;3.97;3.67;;;20.20;30.50;;;;;;5029368;28;20456;-70
2023/04/10 10:26:25;;;;;;;3.10;2.90;;;20.30;30.20;;;;;;5029756;28;20622;-71
2023/04/10 10:28:55;;;;;;;3.80;3.50;;;20.40;30.10;;;;;;5029486;28;20453;-70
2023/04/10 10:31:25;;;;;;;3.70;3.40;;;20.60;31.60;;;;;;5029604;28;20483;-70
2023/04/10 10:33:53;;;;;;;3.27;2.97;;;20.80;30.90;;;;;;5029085;28;20491;-72
2023/04/10 10:36:22;;;;;;;3.23;2.93;;;21.10;30.60;;;;;;5029545;28;20457;-71
2023/04/10 10:38:58;;;;;;;3.10;2.87;;;21.20;29.80;;;;;;5029339;28;21010;-71
2023/04/10 10:41:30;;;;;;;3.30;3.10;;;20.90;30.00;;;;;;5029404;28;20476;-71
2023/04/10 10:44:08;;;;;;;3.17;2.93;;;20.90;30.00;;;;;;5028767;28;20449;-72
2023/04/10 10:46:43;;;;;;;2.87;2.67;;;21.40;29.10;;;;;;5028744;28;20448;-71
2023/04/10 10:49:09;;;;;;;3.27;2.93;;;21.60;28.00;;;;;;5040875;28;20454;-71
2023/04/10 10:51:43;;;;;;;3.00;2.80;;;22.10;28.70;;;;;;5048418;28;21051;-71
2023/04/10 10:54:28;;;;;;;2.87;2.67;;;22.40;29.20;;;;;;5051043;28;20435;-74
2023/04/10 10:56:55;;;;;;;2.90;2.70;;;22.00;28.30;;;;;;5052488;28;20442;-71
2023/04/10 10:59:53;;;;;;;2.80;2.60;;;21.90;28.90;;;;;;5052708;28;20444;-71
2023/04/10 11:02:22;;;;;;;2.70;2.50;;;22.00;29.30;;;;;;5052487;28;20459;-72
2023/04/10 11:04:49;;;;;;;3.40;3.10;;;21.90;28.70;;;;;;5052575;28;20450;-71
2023/04/10 11:07:17;;;;;;;2.80;2.60;;;22.20;28.10;;;;;;5043904;28;20444;-72
2023/04/10 11:09:49;;;;;;;3.30;3.00;;;22.20;28.50;;;;;;5046849;28;20503;-74
2023/04/10 11:12:16;;;;;;;3.07;2.87;;;22.10;27.20;;;;;;5052811;28;20487;-72
2023/04/10 11:14:44;;;;;;;2.60;2.40;;;22.20;27.50;;;;;;5042239;28;20813;-72
2023/04/10 11:17:11;;;;;;;2.80;2.60;;;22.20;28.00;;;;;;5052227;28;21081;-71
2023/04/10 11:19:59;;;;;;;3.73;3.20;;;22.50;29.60;;;;;;5049374;28;20459;-73
2023/04/10 11:22:27;;;;;;;2.40;2.20;;;22.50;28.50;;;;;;5049698;28;20439;-73
2023/04/10 11:24:59;;;;;;;2.83;2.50;;;23.00;28.40;;;;;;5043505;28;20483;-74
2023/04/10 11:27:40;;;;;;;2.50;2.30;;;23.50;26.70;;;;;;5045799;28;20539;-72
2023/04/10 11:30:25;;;;;;;3.17;2.90;;;24.00;27.90;;;;;;5046711;28;20466;-72
2023/04/10 11:32:52;;;;;;;2.70;2.50;;;24.60;25.80;;;;;;5049055;28;20479;-72
2023/04/10 11:35:21;;;;;;;2.50;2.30;;;25.20;24.10;;;;;;5051024;28;20444;-71
2023/04/10 11:37:47;;;;;;;2.30;2.10;;;25.40;25.80;;;;;;5051341;28;20491;-72
2023/04/10 11:40:15;;;;;;;2.63;2.43;;;25.30;25.10;;;;;;5051436;28;20833;-73
2023/04/10 11:42:42;;;;;;;2.00;1.90;;;25.70;26.00;;;;;;5050709;28;20850;-71
2023/04/10 11:45:26;;;;;;;2.70;2.50;;;26.20;25.10;;;;;;5052295;28;20440;-72
2023/04/10 11:47:53;;;;;;;3.00;2.80;;;26.80;24.80;;;;;;5050623;28;20960;-72
2023/04/10 11:50:21;;;;;;;3.27;2.60;;;27.40;21.30;;;;;;5049963;28;20481;-73
2023/04/10 11:52:49;;;;;;;2.20;2.00;;;27.60;23.80;;;;;;5048864;28;20484;-73
2023/04/10 11:55:17;;;;;;;3.77;2.67;;;27.30;21.90;;;;;;5047535;28;20819;-73
2023/04/10 11:57:45;;;;;;;2.70;2.50;;;27.20;23.40;;;;;;5048760;28;20934;-72
2023/04/10 12:00:12;;;;;;;2.47;2.27;;;27.50;24.30;;;;;;5050518;28;20860;-72
2023/04/10 12:02:51;;;;;;;3.43;2.50;;;27.30;23.70;;;;;;5050471;28;20436;-73
2023/04/10 12:05:18;;;;;;;3.30;2.00;;;27.20;23.30;;;;;;5050426;28;20490;-73
2023/04/10 12:07:48;;;;;;;3.00;1.80;;;27.70;23.10;;;;;;5048441;28;21017;-73
2023/04/10 12:10:15;;;;;;;2.50;2.10;;;28.10;22.60;;;;;;5047411;28;20482;-73
2023/04/10 12:12:42;;;;;;;2.40;2.20;;;28.00;22.10;;;;;;5046595;28;20515;-73
2023/04/10 12:15:26;;;;;;;2.53;2.13;;;28.10;22.40;;;;;;5048919;28;21065;-73
2023/04/10 12:17:53;;;;;;;2.10;1.90;;;28.30;21.60;;;;;;5049222;28;20444;-73
2023/04/10 12:20:22;;;;;;;2.07;1.90;;;28.40;21.60;;;;;;5049760;28;20464;-72
2023/04/10 12:22:50;;;;;;;1.87;1.77;;;28.60;20.90;;;;;;5049914;28;21027;-73
2023/04/10 12:25:21;;;;;;;1.70;1.60;;;28.70;20.40;;;;;;5050359;28;20440;-74
2023/04/10 12:27:50;;;;;;;1.70;1.60;;;28.70;20.80;;;;;;5050335;28;20817;-73
2023/04/10 12:30:17;;;;;;;2.03;1.30;;;29.00;18.70;;;;;;5050338;28;20464;-73
2023/04/10 12:32:52;;;;;;;1.93;1.13;;;29.00;18.10;;;;;;5049711;28;20526;-71
2023/04/10 12:35:19;;;;;;;1.80;1.33;;;28.70;20.40;;;;;;5050211;28;20436;-72
2023/04/10 12:37:53;;;;;;;1.97;1.30;;;29.10;20.00;;;;;;5050271;28;20437;-73
2023/04/10 12:40:20;;;;;;;0.90;0.80;;;29.00;20.60;;;;;;5050288;28;20472;-71
2023/04/10 12:42:47;;;;;;;1.40;1.20;;;28.80;19.90;;;;;;5050058;28;20451;-72
2023/04/10 12:45:14;;;;;;;1.13;1.03;;;29.00;19.90;;;;;;5049835;28;20527;-72
2023/04/10 12:47:46;;;;;;;1.63;1.17;;;28.90;17.90;;;;;;5030766;28;20456;-71